Time;durP1;ratioP1;P1;durP2;ratioP2;P2;SDS_P1;SDS_P2;PMS_P1;PMS_P2;Temp;Humidity;BMP_temperature;BMP_pressure;BME280_temperature;BME280_humidity;BME280_pressure;Samples;Min_cycle;Max_cycle;Signal;HPM_P1;HPM_P2
2024/01/25 00:00:28;;;;;;;35.07;15.73;;;;;;;;;;4917378;29;20252;-76
2024/01/25 00:02:53;;;;;;;38.23;16.40;;;;;;;;;;4915420;28;20713;-76
2024/01/25 00:05:19;;;;;;;35.23;16.40;;;;;;;;;;4933950;28;20264;-75
2024/01/25 00:07:47;;;;;;;37.60;16.77;;;;;;;;;;4935224;28;20711;-75
2024/01/25 00:10:13;;;;;;;43.47;19.13;;;;;;;;;;4909248;29;20275;-76
2024/01/25 00:12:39;;;;;;;41.30;19.37;;;;;;;;;;4913780;29;21004;-75
2024/01/25 00:15:04;;;;;;;41.17;18.50;;;;;;;;;;4930252;28;20229;-75
2024/01/25 00:17:30;;;;;;;34.53;15.00;;;;;;;;;;4933970;28;20245;-75
2024/01/25 00:19:55;;;;;;;35.70;15.10;;;;;;;;;;4932019;29;20316;-75
2024/01/25 00:22:20;;;;;;;33.40;15.00;;;;;;;;;;4907210;29;20603;-75
2024/01/25 00:24:45;;;;;;;28.70;14.67;;;;;;;;;;4910197;29;20618;-76
2024/01/25 00:27:11;;;;;;;34.80;15.40;;;;;;;;;;4914110;28;20637;-75
2024/01/25 00:29:36;;;;;;;33.67;15.23;;;;;;;;;;4930641;29;20327;-75
2024/01/25 00:32:02;;;;;;;33.73;14.63;;;;;;;;;;4933479;28;20225;-74
2024/01/25 00:34:28;;;;;;;33.07;14.70;;;;;;;;;;4917665;29;20287;-70
2024/01/25 00:36:54;;;;;;;32.90;14.80;;;;;;;;;;4931113;29;20230;-70
2024/01/25 00:39:19;;;;;;;33.37;14.70;;;;;;;;;;4932060;28;20304;-70
2024/01/25 00:41:45;;;;;;;31.90;14.60;;;;;;;;;;4918848;29;20312;-75
2024/01/25 00:44:10;;;;;;;35.20;14.37;;;;;;;;;;4913459;29;20373;-75
2024/01/25 00:46:36;;;;;;;32.33;14.10;;;;;;;;;;4914261;29;20605;-75
2024/01/25 00:49:04;;;;;;;32.60;14.37;;;;;;;;;;4900060;29;20458;-76
2024/01/25 00:51:29;;;;;;;35.57;14.43;;;;;;;;;;4930233;28;20267;-76
2024/01/25 00:53:55;;;;;;;32.30;14.87;;;;;;;;;;4917882;29;20225;-75
2024/01/25 00:56:20;;;;;;;31.03;14.37;;;;;;;;;;4904480;28;20595;-75
2024/01/25 00:58:46;;;;;;;30.63;14.23;;;;;;;;;;4906339;29;20253;-75
2024/01/25 01:01:11;;;;;;;31.37;14.47;;;;;;;;;;4917050;29;20274;-76
2024/01/25 01:03:37;;;;;;;34.30;15.00;;;;;;;;;;4904160;29;20248;-76
2024/01/25 01:06:02;;;;;;;35.57;14.97;;;;;;;;;;4920331;29;20282;-75
2024/01/25 01:08:28;;;;;;;33.87;14.80;;;;;;;;;;4912620;29;20365;-75
2024/01/25 01:10:53;;;;;;;32.90;14.80;;;;;;;;;;4905237;29;20727;-76
2024/01/25 01:13:19;;;;;;;34.00;15.40;;;;;;;;;;4917959;29;20400;-75
2024/01/25 01:15:44;;;;;;;30.33;14.57;;;;;;;;;;4910372;29;20225;-71
2024/01/25 01:18:09;;;;;;;32.93;15.00;;;;;;;;;;4920601;28;20225;-74
2024/01/25 01:20:35;;;;;;;32.80;14.77;;;;;;;;;;4920279;29;20229;-75
2024/01/25 01:23:00;;;;;;;34.03;13.80;;;;;;;;;;4936830;28;20228;-74
2024/01/25 01:25:25;;;;;;;26.57;13.10;;;;;;;;;;4938335;29;20641;-75
2024/01/25 01:27:51;;;;;;;28.03;11.40;;;;;;;;;;4907360;29;20363;-74
2024/01/25 01:30:16;;;;;;;27.90;12.47;;;;;;;;;;4918142;28;20240;-75
2024/01/25 01:32:41;;;;;;;26.60;12.87;;;;;;;;;;4916630;29;20485;-75
2024/01/25 01:35:07;;;;;;;26.70;11.50;;;;;;;;;;4919837;28;20228;-74
2024/01/25 01:37:32;;;;;;;26.97;11.83;;;;;;;;;;4919028;29;20225;-76
2024/01/25 01:39:58;;;;;;;32.23;12.83;;;;;;;;;;4923310;29;20229;-75
2024/01/25 01:42:24;;;;;;;31.23;13.30;;;;;;;;;;4931883;28;20232;-75
2024/01/25 01:44:50;;;;;;;28.70;12.67;;;;;;;;;;4920807;29;20241;-76
2024/01/25 01:47:15;;;;;;;31.17;13.40;;;;;;;;;;4914963;29;20237;-75
2024/01/25 01:49:41;;;;;;;28.20;12.40;;;;;;;;;;4910424;28;20382;-75
2024/01/25 01:52:06;;;;;;;28.33;13.10;;;;;;;;;;4913192;29;20616;-75
2024/01/25 01:54:32;;;;;;;28.47;13.03;;;;;;;;;;4905042;29;20229;-76
2024/01/25 01:56:57;;;;;;;33.37;13.63;;;;;;;;;;4909719;29;20650;-76
2024/01/25 01:59:25;;;;;;;27.87;13.07;;;;;;;;;;4907594;29;20619;-76
2024/01/25 02:01:50;;;;;;;27.20;12.57;;;;;;;;;;4915668;29;20225;-75
2024/01/25 02:04:16;;;;;;;31.53;13.90;;;;;;;;;;4917641;29;20248;-75
2024/01/25 02:06:42;;;;;;;42.17;16.67;;;;;;;;;;4908463;29;20221;-75
2024/01/25 02:09:07;;;;;;;34.57;14.77;;;;;;;;;;4902375;29;20238;-74
2024/01/25 02:11:33;;;;;;;34.70;14.47;;;;;;;;;;4906064;29;20241;-74
2024/01/25 02:13:58;;;;;;;39.33;15.97;;;;;;;;;;4916135;29;20635;-74
2024/01/25 02:16:23;;;;;;;35.50;15.13;;;;;;;;;;4916288;29;20233;-74
2024/01/25 02:18:49;;;;;;;38.27;17.77;;;;;;;;;;4921498;29;20225;-74
2024/01/25 02:21:14;;;;;;;36.67;16.83;;;;;;;;;;4911944;29;20304;-69
2024/01/25 02:23:39;;;;;;;36.30;16.37;;;;;;;;;;4919290;29;20260;-69
2024/01/25 02:26:05;;;;;;;43.20;16.90;;;;;;;;;;4907073;28;20968;-69
2024/01/25 02:28:30;;;;;;;37.67;16.87;;;;;;;;;;4935437;28;20253;-69
2024/01/25 02:30:55;;;;;;;38.37;16.67;;;;;;;;;;4918622;29;20243;-69
2024/01/25 02:33:21;;;;;;;38.77;17.43;;;;;;;;;;4919702;29;20224;-69
2024/01/25 02:35:46;;;;;;;39.63;16.97;;;;;;;;;;4934747;28;20232;-68
2024/01/25 02:38:11;;;;;;;41.97;16.40;;;;;;;;;;4931113;29;20233;-70
2024/01/25 02:40:37;;;;;;;42.97;18.50;;;;;;;;;;4917681;29;20328;-70
2024/01/25 02:43:02;;;;;;;56.30;24.70;;;;;;;;;;4918139;28;20237;-71
2024/01/25 02:45:27;;;;;;;42.10;18.17;;;;;;;;;;4918259;28;20747;-71
2024/01/25 02:47:53;;;;;;;36.60;16.37;;;;;;;;;;4903728;29;20848;-69
2024/01/25 02:50:18;;;;;;;38.93;16.40;;;;;;;;;;4925872;29;20264;-75
2024/01/25 02:52:43;;;;;;;36.77;16.57;;;;;;;;;;4921389;29;20899;-75
2024/01/25 02:55:09;;;;;;;36.47;15.63;;;;;;;;;;4908204;28;20263;-74
2024/01/25 02:57:34;;;;;;;40.20;16.93;;;;;;;;;;4918765;29;20225;-75
2024/01/25 02:59:59;;;;;;;41.33;16.67;;;;;;;;;;4905810;29;20232;-75
2024/01/25 03:02:25;;;;;;;41.03;16.37;;;;;;;;;;4935748;28;20370;-74
2024/01/25 03:04:50;;;;;;;32.83;15.17;;;;;;;;;;4899539;29;20619;-74
2024/01/25 03:07:15;;;;;;;37.67;15.83;;;;;;;;;;4913149;28;20275;-74
2024/01/25 03:09:41;;;;;;;34.67;15.97;;;;;;;;;;4917121;29;20229;-70
2024/01/25 03:12:06;;;;;;;33.13;15.47;;;;;;;;;;4918653;28;20225;-70
2024/01/25 03:14:31;;;;;;;35.97;15.77;;;;;;;;;;4906080;29;20251;-68
2024/01/25 03:16:57;;;;;;;40.60;15.80;;;;;;;;;;4917784;29;20236;-70
2024/01/25 03:19:25;;;;;;;36.30;15.53;;;;;;;;;;4915208;29;21291;-74
2024/01/25 03:21:51;;;;;;;25.77;11.83;;;;;;;;;;4918592;29;20291;-74
2024/01/25 03:24:16;;;;;;;16.73;8.80;;;;;;;;;;4916112;29;20268;-73
2024/01/25 03:26:42;;;;;;;13.17;5.90;;;;;;;;;;4915694;29;20237;-74
2024/01/25 03:29:07;;;;;;;7.40;3.50;;;;;;;;;;4907153;29;20344;-74
2024/01/25 03:31:33;;;;;;;4.80;2.70;;;;;;;;;;4908877;29;20621;-75
2024/01/25 03:33:58;;;;;;;4.07;2.10;;;;;;;;;;4916050;29;20245;-75
2024/01/25 03:36:23;;;;;;;3.23;1.63;;;;;;;;;;4903312;29;20264;-74
2024/01/25 03:38:49;;;;;;;2.77;1.70;;;;;;;;;;4911065;29;20247;-74
2024/01/25 03:41:14;;;;;;;3.37;1.83;;;;;;;;;;4935266;28;20225;-74
2024/01/25 03:43:39;;;;;;;3.37;1.80;;;;;;;;;;4911567;29;20300;-74
2024/01/25 03:46:05;;;;;;;2.03;1.50;;;;;;;;;;4925731;29;20601;-73
2024/01/25 03:48:30;;;;;;;2.27;1.60;;;;;;;;;;4936158;28;20233;-74
2024/01/25 03:50:56;;;;;;;2.17;1.50;;;;;;;;;;4912788;29;20323;-74
2024/01/25 03:53:23;;;;;;;2.73;1.60;;;;;;;;;;4911143;29;20253;-76
2024/01/25 03:55:49;;;;;;;2.80;1.60;;;;;;;;;;4916963;29;20284;-75
2024/01/25 03:58:14;;;;;;;4.07;1.70;;;;;;;;;;4915231;28;20248;-75
2024/01/25 04:00:40;;;;;;;4.30;1.73;;;;;;;;;;4919511;29;20237;-75
2024/01/25 04:03:05;;;;;;;3.67;1.90;;;;;;;;;;4902306;29;20229;-74
2024/01/25 04:05:31;;;;;;;3.77;1.90;;;;;;;;;;4902487;29;20615;-70
2024/01/25 04:07:56;;;;;;;3.70;1.77;;;;;;;;;;4918675;29;20312;-70
2024/01/25 04:10:22;;;;;;;4.13;1.80;;;;;;;;;;4916409;29;20750;-69
2024/01/25 04:12:47;;;;;;;4.87;2.00;;;;;;;;;;4932228;28;20225;-70
2024/01/25 04:15:12;;;;;;;4.07;2.27;;;;;;;;;;4917729;28;20237;-70
2024/01/25 04:17:38;;;;;;;6.03;2.97;;;;;;;;;;4923842;29;20577;-70
2024/01/25 04:20:03;;;;;;;7.03;2.97;;;;;;;;;;4905707;29;20237;-71
2024/01/25 04:22:28;;;;;;;7.03;3.00;;;;;;;;;;4922843;29;20221;-70
2024/01/25 04:24:54;;;;;;;6.00;3.10;;;;;;;;;;4932627;29;20254;-70
2024/01/25 04:27:19;;;;;;;7.17;3.33;;;;;;;;;;4916935;28;20233;-70
2024/01/25 04:29:44;;;;;;;10.90;3.30;;;;;;;;;;4938156;28;20237;-71
2024/01/25 04:32:10;;;;;;;9.27;3.40;;;;;;;;;;4939958;28;20230;-69
2024/01/25 04:34:35;;;;;;;6.50;3.13;;;;;;;;;;4920506;29;20648;-69
2024/01/25 04:37:01;;;;;;;7.23;3.27;;;;;;;;;;4923092;29;20220;-69
2024/01/25 04:39:26;;;;;;;7.00;3.30;;;;;;;;;;4922436;29;20233;-69
2024/01/25 04:41:52;;;;;;;6.67;3.43;;;;;;;;;;4923428;29;20232;-68
2024/01/25 04:44:17;;;;;;;7.17;2.97;;;;;;;;;;4922262;29;20711;-69
2024/01/25 04:46:43;;;;;;;7.43;3.10;;;;;;;;;;4922155;29;20229;-70
2024/01/25 04:49:09;;;;;;;7.90;3.07;;;;;;;;;;4941325;28;20315;-70
2024/01/25 04:51:34;;;;;;;7.40;3.20;;;;;;;;;;4938234;29;20226;-69
2024/01/25 04:54:00;;;;;;;7.73;3.13;;;;;;;;;;4918622;29;20237;-69
2024/01/25 04:56:25;;;;;;;6.63;3.33;;;;;;;;;;4913114;28;20233;-68
2024/01/25 04:58:51;;;;;;;6.53;3.20;;;;;;;;;;4939142;28;20236;-69
2024/01/25 05:01:16;;;;;;;6.07;3.50;;;;;;;;;;4921210;28;20236;-73
2024/01/25 05:03:41;;;;;;;6.97;3.47;;;;;;;;;;4935654;28;20308;-74
2024/01/25 05:06:07;;;;;;;9.40;3.60;;;;;;;;;;4917984;29;20233;-73
2024/01/25 05:08:33;;;;;;;7.80;3.60;;;;;;;;;;4929124;29;20236;-74
2024/01/25 05:10:58;;;;;;;8.73;3.50;;;;;;;;;;4925991;29;20237;-73
2024/01/25 05:13:23;;;;;;;7.93;3.40;;;;;;;;;;4920977;29;20236;-73
2024/01/25 05:15:49;;;;;;;8.17;3.80;;;;;;;;;;4907859;29;20324;-74
2024/01/25 05:18:14;;;;;;;9.77;3.77;;;;;;;;;;4928238;28;20243;-73
2024/01/25 05:20:40;;;;;;;7.70;3.60;;;;;;;;;;4906580;29;20379;-74
2024/01/25 05:23:05;;;;;;;7.40;3.43;;;;;;;;;;4912210;29;20233;-73
2024/01/25 05:25:31;;;;;;;7.90;3.70;;;;;;;;;;4908223;29;20240;-73
2024/01/25 05:27:56;;;;;;;6.47;3.23;;;;;;;;;;4915477;29;20245;-73
2024/01/25 05:30:22;;;;;;;6.83;3.40;;;;;;;;;;4919062;28;20236;-73
2024/01/25 05:32:49;;;;;;;6.53;3.17;;;;;;;;;;4919219;29;20243;-73
2024/01/25 05:35:14;;;;;;;7.27;2.80;;;;;;;;;;4910816;29;20296;-73
2024/01/25 05:37:40;;;;;;;6.60;3.00;;;;;;;;;;4936039;28;20233;-74
2024/01/25 05:40:05;;;;;;;5.00;2.90;;;;;;;;;;4921246;29;20233;-73
2024/01/25 05:42:32;;;;;;;6.67;2.80;;;;;;;;;;4940209;28;20256;-73
2024/01/25 05:44:57;;;;;;;6.77;3.10;;;;;;;;;;4922582;29;20636;-74
2024/01/25 05:47:22;;;;;;;7.03;2.83;;;;;;;;;;4912816;29;20233;-74
2024/01/25 05:49:47;;;;;;;6.77;2.80;;;;;;;;;;4936232;28;20324;-74
2024/01/25 05:52:13;;;;;;;7.00;2.97;;;;;;;;;;4932356;28;20225;-72
2024/01/25 05:54:38;;;;;;;7.40;3.67;;;;;;;;;;4919044;29;20233;-74
2024/01/25 05:57:04;;;;;;;4.80;2.70;;;;;;;;;;4917232;28;20637;-73
2024/01/25 05:59:29;;;;;;;8.80;3.00;;;;;;;;;;4916866;29;20229;-73
2024/01/25 06:01:55;;;;;;;8.07;3.00;;;;;;;;;;4900128;29;20292;-73
2024/01/25 06:04:21;;;;;;;5.07;2.80;;;;;;;;;;4906725;29;20297;-74
2024/01/25 06:06:46;;;;;;;5.83;2.90;;;;;;;;;;4921907;29;20233;-75
2024/01/25 06:09:11;;;;;;;8.83;3.07;;;;;;;;;;4918856;29;20229;-73
2024/01/25 06:11:37;;;;;;;5.87;2.70;;;;;;;;;;4933626;28;20225;-73
2024/01/25 06:14:04;;;;;;;9.07;2.97;;;;;;;;;;4899104;28;20237;-73
2024/01/25 06:16:30;;;;;;;8.17;3.17;;;;;;;;;;4899206;29;20238;-71
2024/01/25 06:18:55;;;;;;;7.43;3.20;;;;;;;;;;4901483;29;20997;-73
2024/01/25 06:21:20;;;;;;;6.63;2.87;;;;;;;;;;4911331;28;20235;-75
2024/01/25 06:23:46;;;;;;;9.50;3.10;;;;;;;;;;4915948;29;20632;-73
2024/01/25 06:26:11;;;;;;;8.83;3.03;;;;;;;;;;4913109;29;20238;-74
2024/01/25 06:28:36;;;;;;;7.40;3.17;;;;;;;;;;4932437;28;20244;-74
2024/01/25 06:31:02;;;;;;;7.47;3.30;;;;;;;;;;4935805;28;20257;-72
2024/01/25 06:33:27;;;;;;;8.20;2.90;;;;;;;;;;4936241;28;20237;-71
2024/01/25 06:35:53;;;;;;;8.03;2.67;;;;;;;;;;4935314;28;20323;-73
2024/01/25 06:38:19;;;;;;;10.03;3.03;;;;;;;;;;4904548;29;20737;-71
2024/01/25 06:40:44;;;;;;;5.70;3.13;;;;;;;;;;4919923;29;20236;-74
2024/01/25 06:43:11;;;;;;;10.23;3.43;;;;;;;;;;4920172;29;20241;-74
2024/01/25 06:45:36;;;;;;;8.30;2.97;;;;;;;;;;4911942;29;20240;-74
2024/01/25 06:48:02;;;;;;;9.00;3.13;;;;;;;;;;4919340;29;20623;-73
2024/01/25 06:50:27;;;;;;;8.27;3.30;;;;;;;;;;4916881;29;20240;-74
2024/01/25 06:52:54;;;;;;;8.13;3.43;;;;;;;;;;4936493;28;20622;-74
2024/01/25 06:55:20;;;;;;;10.07;3.63;;;;;;;;;;4907262;28;20240;-73
2024/01/25 06:57:45;;;;;;;9.73;3.30;;;;;;;;;;4917037;29;20221;-74
2024/01/25 07:00:12;;;;;;;8.80;3.43;;;;;;;;;;4919857;28;20706;-74
2024/01/25 07:02:38;;;;;;;8.47;3.13;;;;;;;;;;4905043;29;20221;-74
2024/01/25 07:05:04;;;;;;;8.07;3.33;;;;;;;;;;4919506;29;20378;-74
2024/01/25 07:07:32;;;;;;;6.60;2.70;;;;;;;;;;4935029;28;20229;-75
2024/01/25 07:09:57;;;;;;;9.83;3.37;;;;;;;;;;4910473;29;20735;-75
2024/01/25 07:12:22;;;;;;;12.00;3.10;;;;;;;;;;4914156;29;20291;-74
2024/01/25 07:14:48;;;;;;;8.73;3.17;;;;;;;;;;4917692;29;20248;-76
2024/01/25 07:17:13;;;;;;;11.80;3.33;;;;;;;;;;4917637;28;20237;-76
2024/01/25 07:19:38;;;;;;;10.27;2.83;;;;;;;;;;4916618;29;20259;-75
2024/01/25 07:22:04;;;;;;;7.47;3.10;;;;;;;;;;4917574;28;20265;-71
2024/01/25 07:24:29;;;;;;;7.17;2.80;;;;;;;;;;4934156;28;20319;-70
2024/01/25 07:26:54;;;;;;;7.53;2.77;;;;;;;;;;4933098;28;20251;-70
2024/01/25 07:29:20;;;;;;;9.90;3.00;;;;;;;;;;4903344;29;20245;-70
2024/01/25 07:31:45;;;;;;;5.97;2.70;;;;;;;;;;4918586;29;20671;-70
2024/01/25 07:34:11;;;;;;;5.60;2.70;;;;;;;;;;4917212;28;20711;-69
2024/01/25 07:36:36;;;;;;;9.50;3.20;;;;;;;;;;4900784;29;20229;-70
2024/01/25 07:39:02;;;;;;;9.87;2.67;;;;;;;;;;4917661;29;20305;-70
2024/01/25 07:41:27;;;;;;;11.67;3.30;;;;;;;;;;4919378;29;20311;-69
2024/01/25 07:43:55;;;;;;;8.10;3.03;;;;;;;;;;4918404;29;20328;-71
2024/01/25 07:46:20;;;;;;;8.37;3.10;;;;;;;;;;4916391;29;20233;-71
2024/01/25 07:48:45;;;;;;;8.90;3.00;;;;;;;;;;4898569;29;20229;-69
2024/01/25 07:51:13;;;;;;;10.67;3.20;;;;;;;;;;4933575;29;20647;-70
2024/01/25 07:53:38;;;;;;;10.27;3.23;;;;;;;;;;4920332;29;20229;-71
2024/01/25 07:56:03;;;;;;;9.27;3.30;;;;;;;;;;4935108;28;20240;-70
2024/01/25 07:58:30;;;;;;;6.97;3.00;;;;;;;;;;4914850;29;20329;-70
2024/01/25 08:00:55;;;;;;;9.47;2.93;;;;;;;;;;4909184;29;20734;-71
2024/01/25 08:03:21;;;;;;;9.23;3.50;;;;;;;;;;4914989;28;20260;-70
2024/01/25 08:05:46;;;;;;;16.73;3.50;;;;;;;;;;4916528;29;20848;-70
2024/01/25 08:08:11;;;;;;;10.70;3.33;;;;;;;;;;4933407;28;20265;-70
2024/01/25 08:10:37;;;;;;;8.63;3.40;;;;;;;;;;4937267;29;20237;-70
2024/01/25 08:13:02;;;;;;;13.03;3.83;;;;;;;;;;4933374;28;20237;-71
2024/01/25 08:15:28;;;;;;;12.53;3.60;;;;;;;;;;4914924;29;20830;-71
2024/01/25 08:17:53;;;;;;;11.40;3.73;;;;;;;;;;4927424;29;20225;-70
2024/01/25 08:20:18;;;;;;;12.87;4.00;;;;;;;;;;4910114;29;20225;-70
2024/01/25 08:22:44;;;;;;;11.43;3.20;;;;;;;;;;4918149;29;20279;-68
2024/01/25 08:25:09;;;;;;;10.40;3.30;;;;;;;;;;4915308;29;20251;-71
2024/01/25 08:27:35;;;;;;;9.20;3.53;;;;;;;;;;4919093;29;20233;-70
2024/01/25 08:30:00;;;;;;;11.23;3.27;;;;;;;;;;4917278;29;20241;-70
2024/01/25 08:32:25;;;;;;;10.20;3.13;;;;;;;;;;4930215;28;20229;-71
2024/01/25 08:34:51;;;;;;;13.70;3.20;;;;;;;;;;4914988;29;20226;-70
2024/01/25 08:37:16;;;;;;;11.40;3.97;;;;;;;;;;4941232;28;20332;-71
2024/01/25 08:39:43;;;;;;;12.10;3.63;;;;;;;;;;4917211;29;20222;-70
2024/01/25 08:42:08;;;;;;;11.70;3.73;;;;;;;;;;4899496;29;20280;-71
2024/01/25 08:44:34;;;;;;;13.17;4.33;;;;;;;;;;4932475;29;20240;-75
2024/01/25 08:46:59;;;;;;;11.33;3.87;;;;;;;;;;4904524;29;20734;-73
2024/01/25 08:49:24;;;;;;;11.97;3.73;;;;;;;;;;4915911;29;20743;-73
2024/01/25 08:51:50;;;;;;;9.67;3.20;;;;;;;;;;4935564;29;20221;-75
2024/01/25 08:54:15;;;;;;;13.23;3.70;;;;;;;;;;4914276;29;20288;-75
2024/01/25 08:56:40;;;;;;;13.37;3.93;;;;;;;;;;4933435;28;20225;-74
2024/01/25 08:59:07;;;;;;;13.83;3.90;;;;;;;;;;4913505;29;20284;-74
2024/01/25 09:01:32;;;;;;;13.10;3.60;;;;;;;;;;4920299;29;20225;-75
2024/01/25 09:04:02;;;;;;;12.47;3.47;;;;;;;;;;4914972;29;20677;-75
2024/01/25 09:06:27;;;;;;;11.93;3.60;;;;;;;;;;4903648;29;20240;-75
2024/01/25 09:08:53;;;;;;;12.33;3.80;;;;;;;;;;4909986;29;20229;-76
2024/01/25 09:11:18;;;;;;;14.73;4.10;;;;;;;;;;4936711;29;20300;-74
2024/01/25 09:13:45;;;;;;;10.37;3.90;;;;;;;;;;4923199;29;20232;-75
2024/01/25 09:16:10;;;;;;;12.03;3.80;;;;;;;;;;4919260;28;20307;-75
2024/01/25 09:18:35;;;;;;;11.33;3.80;;;;;;;;;;4923332;29;20316;-75
2024/01/25 09:21:01;;;;;;;13.30;3.53;;;;;;;;;;4935583;28;20268;-74
2024/01/25 09:23:26;;;;;;;12.37;3.90;;;;;;;;;;4937740;28;20237;-75
2024/01/25 09:25:52;;;;;;;12.10;3.47;;;;;;;;;;4922576;29;20230;-75
2024/01/25 09:28:17;;;;;;;11.77;3.63;;;;;;;;;;4932287;29;20332;-75
2024/01/25 09:30:42;;;;;;;13.03;3.60;;;;;;;;;;4918505;29;20237;-75
2024/01/25 09:33:08;;;;;;;11.30;3.50;;;;;;;;;;4919774;29;20316;-76
2024/01/25 09:35:33;;;;;;;13.13;3.80;;;;;;;;;;4906301;29;20229;-75
2024/01/25 09:37:58;;;;;;;12.77;3.73;;;;;;;;;;4922322;29;20232;-75
2024/01/25 09:40:24;;;;;;;13.10;4.17;;;;;;;;;;4931388;29;20257;-75
2024/01/25 09:42:49;;;;;;;12.17;3.67;;;;;;;;;;4917513;29;20233;-76
2024/01/25 09:45:16;;;;;;;14.97;3.77;;;;;;;;;;4918303;29;20247;-75
2024/01/25 09:47:42;;;;;;;12.23;3.87;;;;;;;;;;4920453;29;20229;-74
2024/01/25 09:50:07;;;;;;;10.47;3.80;;;;;;;;;;4919387;29;20230;-74
2024/01/25 09:52:33;;;;;;;11.33;4.13;;;;;;;;;;4936716;28;20239;-75
2024/01/25 09:54:58;;;;;;;11.40;3.97;;;;;;;;;;4923595;29;20285;-74
2024/01/25 09:57:24;;;;;;;11.07;3.80;;;;;;;;;;4921901;28;20778;-75
2024/01/25 09:59:50;;;;;;;12.10;3.60;;;;;;;;;;4919703;29;20228;-75
2024/01/25 10:02:15;;;;;;;12.27;3.80;;;;;;;;;;4918895;28;20736;-74
2024/01/25 10:04:41;;;;;;;12.20;3.80;;;;;;;;;;4926289;29;20233;-75
2024/01/25 10:07:06;;;;;;;11.50;3.73;;;;;;;;;;4938044;29;20789;-75
2024/01/25 10:09:38;;;;;;;10.03;4.27;;;;;;;;;;4937094;28;20280;-74
2024/01/25 10:12:03;;;;;;;13.50;4.43;;;;;;;;;;4918462;28;20899;-76
2024/01/25 10:14:29;;;;;;;12.73;3.97;;;;;;;;;;4935391;28;20234;-75
2024/01/25 10:16:54;;;;;;;13.83;3.77;;;;;;;;;;4934594;28;20232;-75
2024/01/25 10:19:20;;;;;;;11.77;4.43;;;;;;;;;;4936766;28;20232;-75
2024/01/25 10:21:46;;;;;;;11.23;4.20;;;;;;;;;;4917466;29;20318;-74
2024/01/25 10:24:11;;;;;;;13.27;4.70;;;;;;;;;;4905684;28;20394;-70
2024/01/25 10:26:36;;;;;;;16.90;4.77;;;;;;;;;;4935288;29;20769;-70
2024/01/25 10:29:02;;;;;;;17.47;4.40;;;;;;;;;;4936737;29;20232;-71
2024/01/25 10:31:28;;;;;;;13.03;3.93;;;;;;;;;;4904885;29;20237;-70
2024/01/25 10:33:54;;;;;;;10.63;3.70;;;;;;;;;;4917465;29;20224;-70
2024/01/25 10:36:22;;;;;;;10.77;4.00;;;;;;;;;;4934046;28;20770;-69
2024/01/25 10:38:48;;;;;;;14.23;4.40;;;;;;;;;;4918701;29;20235;-70
2024/01/25 10:41:13;;;;;;;13.23;4.60;;;;;;;;;;4934421;28;20229;-71
2024/01/25 10:43:38;;;;;;;13.93;4.40;;;;;;;;;;4917801;29;20245;-72
2024/01/25 10:46:04;;;;;;;12.63;4.37;;;;;;;;;;4915603;29;20233;-71
2024/01/25 10:48:29;;;;;;;15.33;4.67;;;;;;;;;;4915771;29;20241;-71
2024/01/25 10:50:55;;;;;;;14.70;4.50;;;;;;;;;;4918207;29;20990;-71
2024/01/25 10:53:21;;;;;;;12.80;4.10;;;;;;;;;;4917090;29;21014;-71
2024/01/25 10:55:46;;;;;;;14.00;4.30;;;;;;;;;;4900303;29;20236;-71
2024/01/25 10:58:13;;;;;;;11.53;4.40;;;;;;;;;;4934509;28;20942;-71
2024/01/25 11:00:38;;;;;;;14.40;4.03;;;;;;;;;;4918328;29;20280;-70
2024/01/25 11:03:04;;;;;;;11.37;4.47;;;;;;;;;;4903963;28;20245;-72
2024/01/25 11:05:29;;;;;;;16.37;4.53;;;;;;;;;;4910623;29;20275;-70
2024/01/25 11:07:55;;;;;;;13.07;5.03;;;;;;;;;;4904312;29;20341;-70
2024/01/25 11:10:21;;;;;;;14.17;4.20;;;;;;;;;;4915265;29;20519;-71
2024/01/25 11:12:59;;;;;;;12.10;4.23;;;;;;;;;;4919448;29;20698;-71
2024/01/25 11:15:31;;;;;;;13.97;4.73;;;;;;;;;;4916976;29;20220;-71
2024/01/25 11:17:57;;;;;;;14.77;4.27;;;;;;;;;;4918960;29;20228;-70
2024/01/25 11:20:25;;;;;;;14.53;4.13;;;;;;;;;;4925350;29;20251;-71
2024/01/25 11:22:58;;;;;;;13.73;3.90;;;;;;;;;;4916276;29;20229;-71
2024/01/25 11:25:24;;;;;;;12.23;4.33;;;;;;;;;;4936299;28;20296;-70
2024/01/25 11:27:50;;;;;;;13.63;4.70;;;;;;;;;;4898684;29;20228;-69
2024/01/25 11:30:17;;;;;;;14.83;4.53;;;;;;;;;;4908986;29;20241;-71
2024/01/25 11:32:42;;;;;;;11.37;4.10;;;;;;;;;;4916815;29;20233;-69
2024/01/25 11:35:11;;;;;;;12.70;3.90;;;;;;;;;;4920604;28;20233;-72
2024/01/25 11:37:36;;;;;;;10.20;3.20;;;;;;;;;;4911188;29;20236;-71
2024/01/25 11:40:02;;;;;;;10.57;3.30;;;;;;;;;;4918112;29;20236;-70
2024/01/25 11:42:30;;;;;;;9.60;3.50;;;;;;;;;;4906869;29;20225;-71
2024/01/25 11:44:55;;;;;;;12.50;3.57;;;;;;;;;;4935653;28;20618;-71
2024/01/25 11:47:21;;;;;;;12.23;3.47;;;;;;;;;;4934398;28;20227;-71
2024/01/25 11:49:46;;;;;;;10.37;2.93;;;;;;;;;;4927698;29;20767;-70
2024/01/25 11:52:13;;;;;;;10.27;3.23;;;;;;;;;;4933735;28;20327;-71
2024/01/25 11:54:38;;;;;;;12.33;3.13;;;;;;;;;;4915013;29;20242;-71
2024/01/25 11:57:06;;;;;;;9.97;3.30;;;;;;;;;;4932073;28;20228;-71
2024/01/25 11:59:31;;;;;;;11.23;3.10;;;;;;;;;;4914972;29;20265;-70
2024/01/25 12:01:57;;;;;;;11.97;3.07;;;;;;;;;;4918477;29;20249;-70
2024/01/25 12:04:22;;;;;;;12.13;3.53;;;;;;;;;;4917589;28;20600;-70
2024/01/25 12:06:47;;;;;;;12.10;3.13;;;;;;;;;;4933586;28;20774;-70
2024/01/25 12:09:13;;;;;;;11.83;3.10;;;;;;;;;;4925813;29;20213;-71
2024/01/25 12:11:38;;;;;;;8.67;3.03;;;;;;;;;;4902944;29;20812;-74
2024/01/25 12:14:04;;;;;;;13.80;3.23;;;;;;;;;;4908786;29;20226;-73
2024/01/25 12:16:30;;;;;;;10.83;3.00;;;;;;;;;;4917749;29;20332;-74
2024/01/25 12:18:56;;;;;;;9.67;3.20;;;;;;;;;;4910506;29;20320;-75
2024/01/25 12:21:21;;;;;;;10.00;3.20;;;;;;;;;;4910841;29;20235;-74
2024/01/25 12:23:47;;;;;;;11.70;3.37;;;;;;;;;;4919385;29;20248;-75
2024/01/25 12:26:12;;;;;;;11.67;3.50;;;;;;;;;;4906294;29;20229;-74
2024/01/25 12:28:37;;;;;;;8.63;3.50;;;;;;;;;;4914701;29;20232;-70
2024/01/25 12:31:04;;;;;;;10.43;3.40;;;;;;;;;;4913717;29;20398;-71
2024/01/25 12:33:29;;;;;;;14.60;3.77;;;;;;;;;;4917499;29;20231;-70
2024/01/25 12:35:54;;;;;;;11.70;3.40;;;;;;;;;;4930496;29;20225;-70
2024/01/25 12:38:20;;;;;;;10.90;3.20;;;;;;;;;;4934686;28;20221;-71
2024/01/25 12:40:46;;;;;;;12.63;3.30;;;;;;;;;;4914735;29;20229;-71
2024/01/25 12:43:12;;;;;;;11.90;3.23;;;;;;;;;;4914985;29;20251;-70
2024/01/25 12:45:37;;;;;;;12.67;3.60;;;;;;;;;;4902876;29;20233;-71
2024/01/25 12:48:02;;;;;;;11.50;3.80;;;;;;;;;;4913853;29;20615;-74
2024/01/25 12:50:28;;;;;;;12.63;3.70;;;;;;;;;;4912144;29;20232;-72
2024/01/25 12:52:53;;;;;;;13.97;3.50;;;;;;;;;;4921382;29;20232;-70
2024/01/25 12:55:19;;;;;;;10.97;3.23;;;;;;;;;;4918233;29;20232;-70
2024/01/25 12:57:44;;;;;;;12.73;3.73;;;;;;;;;;4919458;29;20300;-70
2024/01/25 13:00:09;;;;;;;9.80;3.47;;;;;;;;;;4916036;29;20231;-71
2024/01/25 13:02:35;;;;;;;10.20;3.33;;;;;;;;;;4934626;28;20229;-74
2024/01/25 13:05:00;;;;;;;11.63;3.23;;;;;;;;;;4935667;28;20231;-74
2024/01/25 13:07:25;;;;;;;10.30;3.30;;;;;;;;;;4919226;29;20283;-75
2024/01/25 13:09:51;;;;;;;11.57;3.20;;;;;;;;;;4908145;29;20308;-75
2024/01/25 13:12:16;;;;;;;7.70;3.13;;;;;;;;;;4907552;28;20383;-75
2024/01/25 13:14:41;;;;;;;12.13;3.40;;;;;;;;;;4921425;29;20312;-75
2024/01/25 13:17:07;;;;;;;10.80;3.30;;;;;;;;;;4906966;28;20232;-75
2024/01/25 13:19:33;;;;;;;14.17;3.60;;;;;;;;;;4912442;29;20315;-74
2024/01/25 13:21:58;;;;;;;9.33;3.40;;;;;;;;;;4921240;29;20794;-73
2024/01/25 13:24:24;;;;;;;8.37;3.03;;;;;;;;;;4933654;28;20730;-76
2024/01/25 13:26:49;;;;;;;11.53;3.20;;;;;;;;;;4919759;29;20264;-76
2024/01/25 13:29:15;;;;;;;9.23;2.90;;;;;;;;;;4920892;29;20268;-76
2024/01/25 13:31:40;;;;;;;11.13;3.13;;;;;;;;;;4905490;29;20271;-74
2024/01/25 13:34:06;;;;;;;12.57;3.10;;;;;;;;;;4904665;29;20280;-72
2024/01/25 13:36:31;;;;;;;13.93;3.13;;;;;;;;;;4933171;29;20268;-71
2024/01/25 13:38:56;;;;;;;13.20;3.40;;;;;;;;;;4918928;29;20232;-71
2024/01/25 13:41:21;;;;;;;9.90;3.30;;;;;;;;;;4937015;28;20233;-71
2024/01/25 13:43:47;;;;;;;11.43;3.17;;;;;;;;;;4937476;28;20271;-72
2024/01/25 13:46:12;;;;;;;12.20;3.10;;;;;;;;;;4920775;29;20236;-72
2024/01/25 13:48:38;;;;;;;11.97;3.40;;;;;;;;;;4937440;29;20221;-70
2024/01/25 13:51:03;;;;;;;11.50;3.90;;;;;;;;;;4916563;29;20230;-71
2024/01/25 13:53:28;;;;;;;12.93;3.60;;;;;;;;;;4919530;29;20233;-72
2024/01/25 13:55:54;;;;;;;11.40;3.30;;;;;;;;;;4918178;29;20313;-72
2024/01/25 13:58:19;;;;;;;14.73;3.47;;;;;;;;;;4932611;28;20233;-71
2024/01/25 14:00:44;;;;;;;12.33;3.57;;;;;;;;;;4934885;28;20218;-72
2024/01/25 14:03:10;;;;;;;10.13;3.33;;;;;;;;;;4907855;29;20230;-70
2024/01/25 14:05:35;;;;;;;12.63;3.67;;;;;;;;;;4935242;28;20225;-71
2024/01/25 14:08:00;;;;;;;15.37;3.80;;;;;;;;;;4918523;29;20252;-71
2024/01/25 14:10:27;;;;;;;12.77;3.40;;;;;;;;;;4920644;29;20714;-70
2024/01/25 14:12:53;;;;;;;10.50;3.40;;;;;;;;;;4937930;29;20225;-71
2024/01/25 14:15:18;;;;;;;12.90;3.50;;;;;;;;;;4936425;29;20613;-71
2024/01/25 14:17:43;;;;;;;10.87;3.67;;;;;;;;;;4916184;29;20268;-71
2024/01/25 14:20:09;;;;;;;12.10;3.20;;;;;;;;;;4933795;28;20236;-71